首页
METAR-TAF:

METAR-TAF

机场 :

福賈, 意大利

纬度: 41-32N, 经度: 015-43E, 海拔: 57米

当前天气观测

该预报发布于1小时和18分钟前的12:55 UTC
风速13节,风向西转西北
温度 15°C
湿度 48%
气压 1011 hPa
能见度10公里或以上
少量云层高于4000英尺

METAR: LIBA 171255Z 30013KT 9999 FEW040 15/04 Q1011 RMK BKN BKN100 VIS MIN 9999 WIND THR11 30009KT WIND THR29 /////KT BLU

时间: 16:13 (14:13 UTC)

预报

该预报发布于3小时和13分钟前的11:00 UTC
预报有效从17日的 12点(UTC)到 17日的 21点(UTC)
风速15节,风向西北
能见度10公里或以上
少量云层高于3000英尺
散云层高于5000英尺
短暂存在
从 17日的 12点(UTC)到 17日的 15点(UTC)
风速15节,风向西转西北,有时为25节阵风

TAF: LIBA 171100Z 1712/1721 31015KT 9999 FEW030 SCT050 TEMPO 1712/1715 30015G25KT

超过4000个机场的气象观测和天气预报(METAR&TAF报告)。

可查询的气象台以黄色和红色小点在地图上表示。

将鼠标移到小点上方,可查看气象台名称。

然后点击查看天气观测和预报。

如需切换地图:点击带黑十字的绿色按钮放大地图;点击带横线的绿色按钮缩小地图;或者点击绿色箭头查看邻近地区的地图。


METAR-TAF: